Terminal Aerodrome Forecast
Issued by NWS

Home | Current Version | Previous Version | Text Only | Print | Product List | Glossary Off
Versions: 1 2 3 4 5 6 7 8 9 10 11 12 13 14 15

000
FTUS43 KMPX 200520
TAFRNH
TAF
KRNH 200520Z 2006/2106 26004KT P6SM SCT250
     FM201000 23004KT P6SM -SHRA VCTS BKN090CB
     FM201400 29007KT P6SM VCSH SCT250
     FM201500 32009KT P6SM SCT250=

USA.gov is the U.S. government's official web portal to all federal, state and local government web resources and services.